createdAt,value
2023-01-29T00:00:01.536Z,41.0
2023-01-29T00:01:03.495Z,41.0
2023-01-29T00:02:01.981Z,40.8
2023-01-29T00:03:01.472Z,40.6
2023-01-29T00:04:01.353Z,40.6
2023-01-29T00:06:05.588Z,40.5
2023-01-29T00:07:01.376Z,40.5
2023-01-29T00:08:01.784Z,40.6
2023-01-29T00:09:01.825Z,40.3
2023-01-29T00:10:01.705Z,40.1
2023-01-29T00:10:20.940Z,40.5
2023-01-29T00:11:02.812Z,39.7
2023-01-29T00:12:01.385Z,39.7
2023-01-29T00:13:01.351Z,39.7
2023-01-29T00:14:01.629Z,39.6
2023-01-29T00:15:01.340Z,39.7
2023-01-29T00:16:02.799Z,39.7
2023-01-29T00:17:01.480Z,39.6
2023-01-29T00:18:01.818Z,39.6
2023-01-29T00:19:02.422Z,39.6
2023-01-29T00:20:01.431Z,39.6
2023-01-29T00:21:01.357Z,39.4
2023-01-29T00:22:01.762Z,39.4
2023-01-29T00:23:01.456Z,39.4
2023-01-29T00:24:01.809Z,39.6
2023-01-29T00:25:01.478Z,39.6
2023-01-29T00:26:01.368Z,39.7
2023-01-29T00:27:01.838Z,39.6
2023-01-29T00:28:01.348Z,39.6
2023-01-29T00:29:01.709Z,39.6
2023-01-29T00:30:01.366Z,39.2
2023-01-29T00:31:07.568Z,39.2
2023-01-29T00:32:01.837Z,39.4
2023-01-29T00:33:02.435Z,39.4
2023-01-29T00:34:01.345Z,39.4
2023-01-29T00:35:01.733Z,39.4
2023-01-29T00:36:02.043Z,39.2
2023-01-29T00:37:01.375Z,39.2
2023-01-29T00:38:01.793Z,39.2
2023-01-29T00:39:01.596Z,39.4
2023-01-29T00:40:01.378Z,39.2
2023-01-29T00:41:05.230Z,39.2
2023-01-29T00:42:01.439Z,39.2
2023-01-29T00:43:01.587Z,39.4
2023-01-29T00:44:02.045Z,39.4
2023-01-29T00:45:01.810Z,39.4
2023-01-29T00:46:01.798Z,39.4
2023-01-29T00:47:03.142Z,39.2
2023-01-29T00:48:02.220Z,39.0
2023-01-29T00:49:02.165Z,38.7
2023-01-29T00:50:04.237Z,38.7
2023-01-29T00:51:02.662Z,38.5
2023-01-29T00:52:01.774Z,38.5
2023-01-29T00:53:01.437Z,38.5
2023-01-29T00:54:02.261Z,38.7
2023-01-29T00:55:03.538Z,38.5
2023-01-29T00:56:01.805Z,38.5
2023-01-29T00:57:02.580Z,38.3
2023-01-29T00:58:01.715Z,38.3
2023-01-29T00:59:02.017Z,38.3
2023-01-29T01:00:03.680Z,38.1
2023-01-29T01:01:02.077Z,38.3
2023-01-29T01:02:01.716Z,38.1
2023-01-29T01:03:01.353Z,38.1
2023-01-29T01:04:01.361Z,38.1
2023-01-29T01:05:01.515Z,38.1
2023-01-29T01:06:03.102Z,37.9
2023-01-29T01:07:01.949Z,37.9
2023-01-29T01:08:01.832Z,37.9
2023-01-29T01:09:01.375Z,38.1
2023-01-29T01:10:01.879Z,37.9
2023-01-29T01:11:04.007Z,38.1
2023-01-29T01:12:01.428Z,38.3
2023-01-29T01:13:04.529Z,38.3
2023-01-29T01:14:01.374Z,38.3
2023-01-29T01:15:01.408Z,38.3
2023-01-29T01:16:01.835Z,38.3
2023-01-29T01:17:01.793Z,38.3
2023-01-29T01:18:02.567Z,38.5
2023-01-29T01:19:03.049Z,38.5
2023-01-29T01:20:01.400Z,38.7
2023-01-29T01:21:01.729Z,38.8
2023-01-29T01:22:01.558Z,39.0
2023-01-29T01:23:02.640Z,39.0
2023-01-29T01:24:01.393Z,39.0
2023-01-29T01:25:01.727Z,39.0
2023-01-29T01:26:01.717Z,39.2
2023-01-29T01:27:01.419Z,39.2
2023-01-29T01:28:02.020Z,39.0
2023-01-29T01:29:01.404Z,39.0
2023-01-29T01:30:01.391Z,38.8
2023-01-29T01:31:08.527Z,38.8
2023-01-29T01:32:01.802Z,38.8
2023-01-29T01:33:01.738Z,38.7
2023-01-29T01:34:01.562Z,38.5
2023-01-29T01:35:01.367Z,38.3
2023-01-29T01:36:01.873Z,38.1
2023-01-29T01:37:01.812Z,38.1
2023-01-29T01:38:01.367Z,38.3
2023-01-29T01:39:02.630Z,38.1
2023-01-29T01:40:01.698Z,38.1
2023-01-29T01:41:01.346Z,38.1
2023-01-29T01:42:01.356Z,37.9
2023-01-29T01:43:02.149Z,38.1
2023-01-29T01:44:04.043Z,38.3
2023-01-29T01:45:04.470Z,38.1
2023-01-29T01:46:01.406Z,38.1
2023-01-29T01:47:01.514Z,37.9
2023-01-29T01:48:06.727Z,38.1
2023-01-29T01:49:09.400Z,38.1
2023-01-29T01:50:08.733Z,38.1
2023-01-29T01:51:04.955Z,38.1
2023-01-29T01:52:01.778Z,38.1
2023-01-29T01:53:06.541Z,38.3
2023-01-29T01:54:06.771Z,38.1
2023-01-29T01:55:01.713Z,38.1
2023-01-29T01:56:04.476Z,37.9
2023-01-29T01:57:06.418Z,37.9
2023-01-29T01:58:08.054Z,37.8
2023-01-29T01:59:01.382Z,37.8
2023-01-29T02:00:07.131Z,37.8
2023-01-29T02:01:03.552Z,37.8
2023-01-29T02:02:01.872Z,37.8
2023-01-29T02:03:03.171Z,37.9
2023-01-29T02:04:06.337Z,37.9
2023-01-29T02:05:02.067Z,37.9
2023-01-29T02:06:01.885Z,37.8
2023-01-29T02:07:03.722Z,37.8
2023-01-29T02:08:01.739Z,37.6
2023-01-29T02:09:05.301Z,37.6
2023-01-29T02:10:08.637Z,37.6
2023-01-29T02:11:01.546Z,37.6
2023-01-29T02:12:03.881Z,37.6
2023-01-29T02:13:01.377Z,37.8
2023-01-29T02:14:01.735Z,37.8
2023-01-29T02:15:01.560Z,37.6
2023-01-29T02:16:01.417Z,37.6
2023-01-29T02:17:01.876Z,37.4
2023-01-29T02:18:02.070Z,37.4
2023-01-29T02:19:04.071Z,37.4
2023-01-29T02:20:10.645Z,37.6
2023-01-29T02:21:16.781Z,37.6
2023-01-29T02:22:20.801Z,37.6
2023-01-29T02:23:20.836Z,37.8
2023-01-29T02:24:20.939Z,37.8
2023-01-29T02:25:11.289Z,37.8
2023-01-29T02:26:20.780Z,37.9
2023-01-29T02:27:08.184Z,37.9
2023-01-29T02:28:13.401Z,38.1
2023-01-29T02:29:08.702Z,38.5
2023-01-29T02:30:07.828Z,38.5
2023-01-29T02:31:08.949Z,38.3
2023-01-29T02:32:14.508Z,38.3
2023-01-29T02:33:09.785Z,38.1
2023-01-29T02:34:12.091Z,38.3
2023-01-29T02:35:14.989Z,38.3
2023-01-29T02:36:11.327Z,38.3
2023-01-29T02:37:08.622Z,38.1
2023-01-29T02:38:10.628Z,37.9
2023-01-29T02:39:14.502Z,37.9
2023-01-29T02:40:11.460Z,37.8
2023-01-29T02:41:07.483Z,37.8
2023-01-29T02:42:11.217Z,37.9
2023-01-29T02:43:09.626Z,38.1
2023-01-29T02:44:10.338Z,37.9
2023-01-29T02:45:09.441Z,38.3
2023-01-29T02:46:10.661Z,38.5
2023-01-29T02:47:06.837Z,38.7
2023-01-29T02:48:02.217Z,38.7
2023-01-29T02:49:09.679Z,38.7
2023-01-29T02:50:12.292Z,38.7
2023-01-29T02:51:06.059Z,38.7
2023-01-29T02:52:08.386Z,38.8
2023-01-29T02:53:08.355Z,38.8
2023-01-29T02:54:06.667Z,38.8
2023-01-29T02:55:09.283Z,38.7
2023-01-29T02:56:09.343Z,38.5
2023-01-29T02:57:09.739Z,38.5
2023-01-29T02:58:08.899Z,38.5
2023-01-29T02:59:08.506Z,38.3
2023-01-29T03:00:09.300Z,38.3
2023-01-29T03:01:11.759Z,38.3
2023-01-29T03:02:06.212Z,38.3
2023-01-29T03:03:08.380Z,38.3
2023-01-29T03:04:07.112Z,38.3
2023-01-29T03:05:07.704Z,38.3
2023-01-29T03:06:06.473Z,38.3
2023-01-29T03:07:07.657Z,38.5
2023-01-29T03:08:07.767Z,38.3
2023-01-29T03:09:06.660Z,38.1
2023-01-29T03:10:06.808Z,38.3
2023-01-29T03:11:04.654Z,38.3
2023-01-29T03:12:09.502Z,37.9
2023-01-29T03:13:07.781Z,37.9
2023-01-29T03:14:08.149Z,37.8
2023-01-29T03:15:07.173Z,37.6
2023-01-29T03:16:08.142Z,37.6
2023-01-29T03:17:02.705Z,37.6
2023-01-29T03:18:07.980Z,37.6
2023-01-29T03:19:06.093Z,37.6
2023-01-29T03:20:04.680Z,37.8
2023-01-29T03:21:06.909Z,37.8
2023-01-29T03:22:05.774Z,37.9
2023-01-29T03:23:07.696Z,37.9
2023-01-29T03:24:05.578Z,37.9
2023-01-29T03:25:04.233Z,37.9
2023-01-29T03:26:01.498Z,37.9
2023-01-29T03:27:07.152Z,37.9
2023-01-29T03:28:03.652Z,38.1
2023-01-29T03:29:04.893Z,37.9
2023-01-29T03:30:04.295Z,37.9
2023-01-29T03:31:05.722Z,37.8
2023-01-29T03:32:01.879Z,37.8
2023-01-29T03:33:07.273Z,37.8
2023-01-29T03:34:08.810Z,37.8
2023-01-29T03:35:04.335Z,37.6
2023-01-29T03:36:08.388Z,37.6
2023-01-29T03:37:06.586Z,37.4
2023-01-29T03:38:03.353Z,37.4
2023-01-29T03:39:01.456Z,37.4
2023-01-29T03:40:03.115Z,37.2
2023-01-29T03:41:08.001Z,37.2
2023-01-29T03:42:11.777Z,37.2
2023-01-29T03:43:09.802Z,37.2
2023-01-29T03:44:13.810Z,37.2
2023-01-29T03:45:09.709Z,37.2
2023-01-29T03:46:07.935Z,37.0
2023-01-29T03:47:14.010Z,37.0
2023-01-29T03:48:08.510Z,37.0
2023-01-29T03:49:10.532Z,37.0
2023-01-29T03:50:06.440Z,37.0
2023-01-29T03:51:14.789Z,37.0
2023-01-29T03:52:09.908Z,37.0
2023-01-29T03:53:07.726Z,37.0
2023-01-29T03:54:10.288Z,37.0
2023-01-29T03:55:09.759Z,37.0
2023-01-29T03:56:06.638Z,37.0
2023-01-29T03:57:08.365Z,37.0
2023-01-29T03:58:10.784Z,36.9
2023-01-29T03:59:12.527Z,36.7
2023-01-29T04:00:10.859Z,36.9
2023-01-29T04:01:06.236Z,36.9
2023-01-29T04:02:06.166Z,36.9
2023-01-29T04:03:09.003Z,36.9
2023-01-29T04:04:09.037Z,36.9
2023-01-29T04:05:06.502Z,36.7
2023-01-29T04:06:10.309Z,36.5
2023-01-29T04:07:08.168Z,36.7
2023-01-29T04:08:07.935Z,36.7
2023-01-29T04:09:07.274Z,36.5
2023-01-29T04:10:07.352Z,36.5
2023-01-29T04:11:08.682Z,36.5
2023-01-29T04:12:06.177Z,36.5
2023-01-29T04:13:08.497Z,36.5
2023-01-29T04:14:02.015Z,36.5
2023-01-29T04:15:05.085Z,36.5
2023-01-29T04:16:06.322Z,36.5
2023-01-29T04:17:08.356Z,36.5
2023-01-29T04:18:02.609Z,36.5
2023-01-29T04:19:02.037Z,36.7
2023-01-29T04:20:02.688Z,36.7
2023-01-29T04:21:02.554Z,36.7
2023-01-29T04:22:06.492Z,36.7
2023-01-29T04:23:01.465Z,36.5
2023-01-29T04:24:02.045Z,36.7
2023-01-29T04:25:06.718Z,36.5
2023-01-29T04:26:17.731Z,36.5
2023-01-29T04:27:17.817Z,36.5
2023-01-29T04:28:07.713Z,36.5
2023-01-29T04:29:19.690Z,36.5
2023-01-29T04:30:15.465Z,36.5
2023-01-29T04:31:06.202Z,36.1
2023-01-29T04:32:14.152Z,36.1
2023-01-29T04:33:13.761Z,36.0
2023-01-29T04:34:16.555Z,36.0
2023-01-29T04:35:18.419Z,35.8
2023-01-29T04:36:15.246Z,36.0
2023-01-29T04:37:12.414Z,36.0
2023-01-29T04:38:11.332Z,36.0
2023-01-29T04:39:12.157Z,35.6
2023-01-29T04:40:15.901Z,35.4
2023-01-29T04:41:08.079Z,35.4
2023-01-29T04:42:10.122Z,35.4
2023-01-29T04:43:06.014Z,35.2
2023-01-29T04:44:08.650Z,35.4
2023-01-29T04:45:12.769Z,35.2
2023-01-29T04:46:12.134Z,35.1
2023-01-29T04:47:09.963Z,35.1
2023-01-29T04:48:12.126Z,34.9
2023-01-29T04:49:15.529Z,35.2
2023-01-29T04:50:12.132Z,35.2
2023-01-29T04:51:10.366Z,35.2
2023-01-29T04:52:10.775Z,35.6
2023-01-29T04:53:09.963Z,35.4
2023-01-29T04:54:08.931Z,35.2
2023-01-29T04:55:09.106Z,35.2
2023-01-29T04:56:10.985Z,35.2
2023-01-29T04:57:11.370Z,35.2
2023-01-29T04:58:07.695Z,35.1
2023-01-29T04:59:06.534Z,35.1
2023-01-29T05:00:07.782Z,35.1
2023-01-29T05:01:05.623Z,35.1
2023-01-29T05:02:03.585Z,34.9
2023-01-29T05:03:01.970Z,34.9
2023-01-29T05:04:06.758Z,34.9
2023-01-29T05:05:03.636Z,34.7
2023-01-29T05:06:02.294Z,34.7
2023-01-29T05:07:03.733Z,34.7
2023-01-29T05:08:04.039Z,34.7
2023-01-29T05:09:02.361Z,34.7
2023-01-29T05:10:03.433Z,34.5
2023-01-29T05:11:01.809Z,34.5
2023-01-29T05:12:04.497Z,34.3
2023-01-29T05:13:05.900Z,34.3
2023-01-29T05:14:05.998Z,34.2
2023-01-29T05:15:07.487Z,34.2
2023-01-29T05:16:07.010Z,34.2
2023-01-29T05:17:06.905Z,34.2
2023-01-29T05:18:02.667Z,34.2
2023-01-29T05:19:01.692Z,34.0
2023-01-29T05:20:01.578Z,34.2
2023-01-29T05:21:06.580Z,34.2
2023-01-29T05:22:05.700Z,34.2
2023-01-29T05:23:02.144Z,34.2
2023-01-29T05:24:10.660Z,34.3
2023-01-29T05:25:01.449Z,34.3
2023-01-29T05:26:02.293Z,34.3
2023-01-29T05:27:02.189Z,34.3
2023-01-29T05:28:01.397Z,34.2
2023-01-29T05:29:01.836Z,34.3
2023-01-29T05:30:02.309Z,34.3
2023-01-29T05:31:01.551Z,34.2
2023-01-29T05:32:01.646Z,34.3
2023-01-29T05:33:02.592Z,34.2
2023-01-29T05:34:01.442Z,34.2
2023-01-29T05:35:01.822Z,34.2
2023-01-29T05:36:01.425Z,34.2
2023-01-29T05:37:01.835Z,34.0
2023-01-29T05:38:01.874Z,34.0
2023-01-29T05:39:01.367Z,33.8
2023-01-29T05:40:01.366Z,33.8
2023-01-29T05:41:01.775Z,33.8
2023-01-29T05:42:01.927Z,33.8
2023-01-29T05:43:01.392Z,33.8
2023-01-29T05:44:01.407Z,33.8
2023-01-29T05:45:01.440Z,33.6
2023-01-29T05:46:01.903Z,33.6
2023-01-29T05:47:01.372Z,33.8
2023-01-29T05:48:01.479Z,33.6
2023-01-29T05:49:01.804Z,33.6
2023-01-29T05:50:01.353Z,33.6
2023-01-29T05:51:02.067Z,33.6
2023-01-29T05:52:01.719Z,33.6
2023-01-29T05:53:01.900Z,33.4
2023-01-29T05:54:01.750Z,33.3
2023-01-29T05:55:01.427Z,33.4
2023-01-29T05:56:03.021Z,33.6
2023-01-29T05:57:01.370Z,33.8
2023-01-29T05:58:01.447Z,33.8
2023-01-29T05:59:01.449Z,33.8
2023-01-29T06:00:01.468Z,33.6
2023-01-29T06:01:09.053Z,33.6
2023-01-29T06:02:01.508Z,33.6
2023-01-29T06:03:01.842Z,33.6
2023-01-29T06:04:01.392Z,33.6
2023-01-29T06:05:01.881Z,33.6
2023-01-29T06:06:01.918Z,33.6
2023-01-29T06:07:01.720Z,33.6
2023-01-29T06:08:01.387Z,33.6
2023-01-29T06:09:01.855Z,33.6
2023-01-29T06:10:02.013Z,33.4
2023-01-29T06:11:01.995Z,33.6
2023-01-29T06:12:01.758Z,33.6
2023-01-29T06:13:01.706Z,33.6
2023-01-29T06:14:01.791Z,33.6
2023-01-29T06:15:01.409Z,33.6
2023-01-29T06:16:04.758Z,33.4
2023-01-29T06:17:01.749Z,33.3
2023-01-29T06:18:01.745Z,33.3
2023-01-29T06:19:01.378Z,33.3
2023-01-29T06:20:02.823Z,33.1
2023-01-29T06:21:02.106Z,33.1
2023-01-29T06:22:01.369Z,32.9
2023-01-29T06:23:01.367Z,33.1
2023-01-29T06:24:01.395Z,32.9
2023-01-29T06:25:01.787Z,32.9
2023-01-29T06:26:01.980Z,32.9
2023-01-29T06:27:01.719Z,33.1
2023-01-29T06:28:01.887Z,33.1
2023-01-29T06:29:01.852Z,33.1
2023-01-29T06:30:01.445Z,33.1
2023-01-29T06:31:23.790Z,32.9
2023-01-29T06:32:01.875Z,32.9
2023-01-29T06:33:01.381Z,32.9
2023-01-29T06:34:01.777Z,33.1
2023-01-29T06:35:01.416Z,33.1
2023-01-29T06:36:03.830Z,33.1
2023-01-29T06:37:01.874Z,33.1
2023-01-29T06:38:01.743Z,33.1
2023-01-29T06:39:01.869Z,33.3
2023-01-29T06:40:01.887Z,33.4
2023-01-29T06:41:08.819Z,33.6
2023-01-29T06:42:01.736Z,33.6
2023-01-29T06:43:01.387Z,33.8
2023-01-29T06:44:01.883Z,33.6
2023-01-29T06:45:01.416Z,33.6
2023-01-29T06:46:01.391Z,33.4
2023-01-29T06:47:01.986Z,33.4
2023-01-29T06:48:01.850Z,33.3
2023-01-29T06:49:01.353Z,33.3
2023-01-29T06:50:02.173Z,33.3
2023-01-29T06:51:02.589Z,33.3
2023-01-29T06:52:01.794Z,33.3
2023-01-29T06:53:01.697Z,33.4
2023-01-29T06:54:01.615Z,33.4
2023-01-29T06:55:01.439Z,33.4
2023-01-29T06:56:02.604Z,33.4
2023-01-29T06:57:01.373Z,33.6
2023-01-29T06:58:04.689Z,33.6
2023-01-29T06:59:01.900Z,33.6
2023-01-29T07:00:01.416Z,33.6
2023-01-29T07:01:04.319Z,33.3
2023-01-29T07:02:02.801Z,33.3
2023-01-29T07:03:02.104Z,33.3
2023-01-29T07:04:01.729Z,33.1
2023-01-29T07:05:01.366Z,33.1
2023-01-29T07:06:01.537Z,33.3
2023-01-29T07:07:01.416Z,33.4
2023-01-29T07:08:01.337Z,33.4
2023-01-29T07:09:02.724Z,33.3
2023-01-29T07:10:01.767Z,33.4
2023-01-29T07:11:02.198Z,33.4
2023-01-29T07:12:01.705Z,33.3
2023-01-29T07:13:01.574Z,33.3
2023-01-29T07:14:01.362Z,33.3
2023-01-29T07:15:01.356Z,33.3
2023-01-29T07:16:03.088Z,33.3
2023-01-29T07:17:02.073Z,33.1
2023-01-29T07:18:03.206Z,33.1
2023-01-29T07:19:01.737Z,33.1
2023-01-29T07:20:02.108Z,33.1
2023-01-29T07:21:04.851Z,33.1
2023-01-29T07:22:01.847Z,33.1
2023-01-29T07:23:01.740Z,33.1
2023-01-29T07:24:01.811Z,33.1
2023-01-29T07:25:01.345Z,33.1
2023-01-29T07:26:02.956Z,33.1
2023-01-29T07:27:01.399Z,32.9
2023-01-29T07:28:02.917Z,32.9
2023-01-29T07:29:01.470Z,32.7
2023-01-29T07:30:01.718Z,32.7
2023-01-29T07:31:02.090Z,32.7
2023-01-29T07:32:01.843Z,32.7
2023-01-29T07:33:02.612Z,33.1
2023-01-29T07:34:01.927Z,32.9
2023-01-29T07:35:01.421Z,32.9
2023-01-29T07:36:01.474Z,33.1
2023-01-29T07:37:01.905Z,33.1
2023-01-29T07:38:01.350Z,33.1
2023-01-29T07:39:01.366Z,33.1
2023-01-29T07:40:01.995Z,32.9
2023-01-29T07:41:03.153Z,32.7
2023-01-29T07:42:01.869Z,32.7
2023-01-29T07:43:03.898Z,32.7
2023-01-29T07:44:01.901Z,32.9
2023-01-29T07:45:01.375Z,32.9
2023-01-29T07:46:02.289Z,32.9
2023-01-29T07:47:01.337Z,32.9
2023-01-29T07:48:01.377Z,33.1
2023-01-29T07:49:01.474Z,33.1
2023-01-29T07:50:01.925Z,33.1
2023-01-29T07:51:01.993Z,32.9
2023-01-29T07:52:01.762Z,33.1
2023-01-29T07:53:02.297Z,33.1
2023-01-29T07:54:01.801Z,33.1
2023-01-29T07:55:01.775Z,33.1
2023-01-29T07:56:01.894Z,33.1
2023-01-29T07:57:01.778Z,32.9
2023-01-29T07:58:03.250Z,32.9
2023-01-29T07:59:01.339Z,32.7
2023-01-29T08:00:01.446Z,32.7
2023-01-29T08:01:05.437Z,32.7
2023-01-29T08:02:01.426Z,32.7
2023-01-29T08:03:02.940Z,32.5
2023-01-29T08:04:01.783Z,32.5
2023-01-29T08:05:01.398Z,32.5
2023-01-29T08:06:02.758Z,32.5
2023-01-29T08:07:01.344Z,32.5
2023-01-29T08:08:06.854Z,32.7
2023-01-29T08:09:01.354Z,32.9
2023-01-29T08:10:01.387Z,32.9
2023-01-29T08:11:02.691Z,32.7
2023-01-29T08:12:01.764Z,32.7
2023-01-29T08:13:02.150Z,32.7
2023-01-29T08:14:01.432Z,32.7
2023-01-29T08:15:02.315Z,32.7
2023-01-29T08:16:02.746Z,32.7
2023-01-29T08:17:01.706Z,32.7
2023-01-29T08:18:01.813Z,32.9
2023-01-29T08:19:02.047Z,32.9
2023-01-29T08:20:01.353Z,32.7
2023-01-29T08:21:02.260Z,32.7
2023-01-29T08:22:01.345Z,32.5
2023-01-29T08:23:03.102Z,32.5
2023-01-29T08:25:08.301Z,32.5
2023-01-29T08:26:02.344Z,32.7
2023-01-29T08:27:01.796Z,32.7
2023-01-29T08:28:01.562Z,32.9
2023-01-29T08:29:01.354Z,32.7
2023-01-29T08:30:01.376Z,32.5
2023-01-29T08:31:01.375Z,32.7
2023-01-29T08:32:01.420Z,32.7
2023-01-29T08:33:03.362Z,32.9
2023-01-29T08:34:01.459Z,32.9
2023-01-29T08:35:01.690Z,32.9
2023-01-29T08:36:01.767Z,32.9
2023-01-29T08:37:01.694Z,32.9
2023-01-29T08:38:03.547Z,32.9
2023-01-29T08:39:01.808Z,32.7
2023-01-29T08:40:01.900Z,32.5
2023-01-29T08:41:01.828Z,32.5
2023-01-29T08:42:01.363Z,32.5
2023-01-29T08:43:05.553Z,32.5
2023-01-29T08:44:02.353Z,32.5
2023-01-29T08:45:01.769Z,32.5
2023-01-29T08:46:03.199Z,32.5
2023-01-29T08:47:01.834Z,32.5
2023-01-29T08:48:02.267Z,32.5
2023-01-29T08:49:01.738Z,32.4
2023-01-29T08:50:01.359Z,32.4
2023-01-29T08:51:02.280Z,32.4
2023-01-29T08:52:03.138Z,32.5
2023-01-29T08:53:03.047Z,32.5
2023-01-29T08:54:01.351Z,32.5
2023-01-29T08:55:01.337Z,32.5
2023-01-29T08:56:01.578Z,32.5
2023-01-29T08:57:01.364Z,32.5
2023-01-29T08:58:03.036Z,32.5
2023-01-29T08:59:01.652Z,32.5
2023-01-29T09:00:01.359Z,32.5
2023-01-29T09:01:10.646Z,32.5
2023-01-29T09:02:01.366Z,32.5
2023-01-29T09:03:01.915Z,32.4
2023-01-29T09:04:01.391Z,32.4
2023-01-29T09:05:01.361Z,32.4
2023-01-29T09:06:01.780Z,32.4
2023-01-29T09:07:01.388Z,32.4
2023-01-29T09:08:01.760Z,32.5
2023-01-29T09:09:01.438Z,32.5
2023-01-29T09:10:02.173Z,32.5
2023-01-29T09:11:01.776Z,32.4
2023-01-29T09:12:01.355Z,32.4
2023-01-29T09:13:01.484Z,32.4
2023-01-29T09:14:01.369Z,32.4
2023-01-29T09:15:01.352Z,32.2
2023-01-29T09:16:03.291Z,32.4
2023-01-29T09:17:01.382Z,32.4
2023-01-29T09:18:03.592Z,32.5
2023-01-29T09:19:01.692Z,32.7
2023-01-29T09:20:01.942Z,32.7
2023-01-29T09:21:01.624Z,32.7
2023-01-29T09:22:01.418Z,32.7
2023-01-29T09:23:05.204Z,32.5
2023-01-29T09:24:01.377Z,32.5
2023-01-29T09:25:02.527Z,32.5
2023-01-29T09:26:01.440Z,32.5
2023-01-29T09:27:01.842Z,32.5
2023-01-29T09:28:01.950Z,32.4
2023-01-29T09:29:01.474Z,32.4
2023-01-29T09:30:01.964Z,32.4
2023-01-29T09:31:02.432Z,32.2
2023-01-29T09:32:01.652Z,32.2
2023-01-29T09:33:01.501Z,32.2
2023-01-29T09:34:01.788Z,32.2
2023-01-29T09:35:01.823Z,32.0
2023-01-29T09:36:03.009Z,31.8
2023-01-29T09:37:01.387Z,31.8
2023-01-29T09:38:01.849Z,31.8
2023-01-29T09:39:01.439Z,31.6
2023-01-29T09:40:01.335Z,31.6
2023-01-29T09:41:15.531Z,31.6
2023-01-29T09:42:10.251Z,31.6
2023-01-29T09:43:06.354Z,31.6
2023-01-29T09:44:10.388Z,31.6
2023-01-29T09:45:08.468Z,31.6
2023-01-29T09:46:07.175Z,31.8
2023-01-29T09:47:05.468Z,31.8
2023-01-29T09:48:03.560Z,31.8
2023-01-29T09:49:08.021Z,31.8
2023-01-29T09:50:06.072Z,32.0
2023-01-29T09:51:12.117Z,32.0
2023-01-29T09:52:06.535Z,32.0
2023-01-29T09:53:11.210Z,32.0
2023-01-29T09:54:12.807Z,31.8
2023-01-29T09:55:09.821Z,31.8
2023-01-29T09:56:08.371Z,31.8
2023-01-29T09:57:01.612Z,31.8
2023-01-29T09:58:11.072Z,31.6
2023-01-29T09:59:02.069Z,31.6
2023-01-29T10:00:01.830Z,31.6
2023-01-29T10:01:12.058Z,31.6
2023-01-29T10:02:09.821Z,31.6
2023-01-29T10:03:19.670Z,31.5
2023-01-29T10:04:20.805Z,31.6
2023-01-29T10:05:16.784Z,31.6
2023-01-29T10:06:14.481Z,31.5
2023-01-29T10:07:14.293Z,31.6
2023-01-29T10:08:18.321Z,31.5
2023-01-29T10:09:19.122Z,31.5
2023-01-29T10:10:16.451Z,31.5
2023-01-29T10:11:12.963Z,31.3
2023-01-29T10:12:13.147Z,31.3
2023-01-29T10:13:11.077Z,31.3
2023-01-29T10:14:13.680Z,31.3
2023-01-29T10:15:13.282Z,31.3
2023-01-29T10:16:16.467Z,31.3
2023-01-29T10:17:15.802Z,31.3
2023-01-29T10:18:20.812Z,31.3
2023-01-29T10:19:16.116Z,31.3
2023-01-29T10:20:20.801Z,31.1
2023-01-29T10:21:16.368Z,31.3
2023-01-29T10:22:20.748Z,31.1
2023-01-29T10:23:13.398Z,31.1
2023-01-29T10:24:12.971Z,31.1
2023-01-29T10:25:03.969Z,31.3
2023-01-29T10:26:02.163Z,31.3
2023-01-29T10:27:11.275Z,31.5
2023-01-29T10:28:01.685Z,31.5
2023-01-29T10:29:05.661Z,31.5
2023-01-29T10:30:07.892Z,31.5
2023-01-29T10:31:07.139Z,31.6
2023-01-29T10:32:03.349Z,31.6
2023-01-29T10:33:03.672Z,31.6
2023-01-29T10:34:10.503Z,31.6
2023-01-29T10:35:05.567Z,31.5
2023-01-29T10:36:06.305Z,31.6
2023-01-29T10:37:14.830Z,31.5
2023-01-29T10:38:16.272Z,31.5
2023-01-29T10:39:01.827Z,31.5
2023-01-29T10:40:01.522Z,31.3
2023-01-29T10:41:13.950Z,31.3
2023-01-29T10:42:17.257Z,31.3
2023-01-29T10:43:12.158Z,31.3
2023-01-29T10:44:16.577Z,31.3
2023-01-29T10:45:15.875Z,31.3
2023-01-29T10:46:15.618Z,31.3
2023-01-29T10:47:20.793Z,31.5
2023-01-29T10:48:20.768Z,31.5
2023-01-29T10:49:13.409Z,31.5
2023-01-29T10:50:14.728Z,31.3
2023-01-29T10:51:17.786Z,31.3
2023-01-29T10:52:15.289Z,31.3
2023-01-29T10:53:15.890Z,31.1
2023-01-29T10:54:19.496Z,31.1
2023-01-29T10:55:18.344Z,31.3
2023-01-29T10:56:22.629Z,31.3
2023-01-29T10:57:10.573Z,31.3
2023-01-29T10:58:16.640Z,31.3
2023-01-29T10:59:08.602Z,31.3
2023-01-29T11:00:08.743Z,31.5
2023-01-29T11:01:02.068Z,31.3
2023-01-29T11:02:01.834Z,31.3
2023-01-29T11:03:26.478Z,31.1
2023-01-29T11:04:05.676Z,31.3
2023-01-29T11:05:01.390Z,31.3
2023-01-29T11:06:10.635Z,31.3
2023-01-29T11:07:01.744Z,31.3
2023-01-29T11:08:07.774Z,31.1
2023-01-29T11:09:08.997Z,30.9
2023-01-29T11:10:10.879Z,31.1
2023-01-29T11:11:07.561Z,31.1
2023-01-29T11:12:08.795Z,31.1
2023-01-29T11:13:04.285Z,31.1
2023-01-29T11:14:06.149Z,31.3
2023-01-29T11:15:06.448Z,31.3
2023-01-29T11:16:04.204Z,31.3
2023-01-29T11:17:01.367Z,31.3
2023-01-29T11:18:04.527Z,31.3
2023-01-29T11:19:01.874Z,31.3
2023-01-29T11:20:01.724Z,31.3
2023-01-29T11:21:03.970Z,31.1
2023-01-29T11:22:02.103Z,31.1
2023-01-29T11:23:01.389Z,31.1
2023-01-29T11:24:07.533Z,30.9
2023-01-29T11:25:15.833Z,30.9
2023-01-29T11:26:02.307Z,30.7
2023-01-29T11:27:01.479Z,30.9
2023-01-29T11:28:02.748Z,30.9
2023-01-29T11:29:01.729Z,31.1
2023-01-29T11:30:01.996Z,31.1
2023-01-29T11:31:02.441Z,30.9
2023-01-29T11:32:04.922Z,31.1
2023-01-29T11:33:08.029Z,31.1
2023-01-29T11:34:04.608Z,31.1
2023-01-29T11:35:04.582Z,31.1
2023-01-29T11:36:19.881Z,30.9
2023-01-29T11:37:03.186Z,30.9
2023-01-29T11:38:20.785Z,30.7
2023-01-29T11:39:12.835Z,30.7
2023-01-29T11:40:11.859Z,30.9
2023-01-29T11:41:05.756Z,30.9
2023-01-29T11:42:03.531Z,31.1
2023-01-29T11:43:12.384Z,31.1
2023-01-29T11:44:11.689Z,31.1
2023-01-29T11:45:01.339Z,31.1
2023-01-29T11:46:04.329Z,31.1
2023-01-29T11:47:16.542Z,30.9
2023-01-29T11:48:01.571Z,30.9
2023-01-29T11:49:14.367Z,30.9
2023-01-29T11:50:03.556Z,31.1
2023-01-29T11:51:02.451Z,31.1
2023-01-29T11:52:05.243Z,31.1
2023-01-29T11:53:03.249Z,31.1
2023-01-29T11:54:04.450Z,31.1
2023-01-29T11:55:05.837Z,31.1
2023-01-29T11:56:05.197Z,31.3
2023-01-29T11:57:03.009Z,31.3
2023-01-29T11:58:10.579Z,31.3
2023-01-29T11:59:02.173Z,31.3
2023-01-29T12:00:06.232Z,31.3
2023-01-29T12:01:03.126Z,31.3
2023-01-29T12:02:17.889Z,31.3
2023-01-29T12:03:10.622Z,31.3
2023-01-29T12:04:03.610Z,31.3
2023-01-29T12:05:06.678Z,31.1
2023-01-29T12:06:05.877Z,31.1
2023-01-29T12:07:01.377Z,31.3
2023-01-29T12:08:01.905Z,31.3
2023-01-29T12:09:08.564Z,31.3
2023-01-29T12:10:01.391Z,31.1
2023-01-29T12:11:11.391Z,31.3
2023-01-29T12:12:16.593Z,31.3
2023-01-29T12:13:15.004Z,31.3
2023-01-29T12:14:03.944Z,31.3
2023-01-29T12:15:14.024Z,31.5
2023-01-29T12:16:15.802Z,31.3
2023-01-29T12:17:06.985Z,31.3
2023-01-29T12:18:11.387Z,31.3
2023-01-29T12:19:11.964Z,31.1
2023-01-29T12:20:08.677Z,31.3
2023-01-29T12:21:03.904Z,31.3
2023-01-29T12:22:06.073Z,31.6
2023-01-29T12:23:13.674Z,31.3
2023-01-29T12:24:09.854Z,31.3
2023-01-29T12:25:12.626Z,31.3
2023-01-29T12:26:08.143Z,31.1
2023-01-29T12:27:11.312Z,31.1
2023-01-29T12:28:09.791Z,31.3
2023-01-29T12:29:16.344Z,31.1
2023-01-29T12:30:10.741Z,31.1
2023-01-29T12:31:15.337Z,31.3
2023-01-29T12:32:11.113Z,31.5
2023-01-29T12:33:12.086Z,31.5
2023-01-29T12:34:10.217Z,31.5
2023-01-29T12:35:09.763Z,31.6
2023-01-29T12:36:10.820Z,31.6
2023-01-29T12:37:10.722Z,31.6
2023-01-29T12:38:07.681Z,31.6
2023-01-29T12:39:01.912Z,31.6
2023-01-29T12:40:01.865Z,31.6
2023-01-29T12:41:07.734Z,31.6
2023-01-29T12:42:08.575Z,31.6
2023-01-29T12:43:06.311Z,31.8
2023-01-29T12:44:07.086Z,31.8
2023-01-29T12:45:07.693Z,32.0
2023-01-29T12:46:03.724Z,32.2
2023-01-29T12:47:06.790Z,32.0
2023-01-29T12:48:07.586Z,32.2
2023-01-29T12:49:10.233Z,32.4
2023-01-29T12:50:06.058Z,32.5
2023-01-29T12:51:07.077Z,32.5
2023-01-29T12:52:10.629Z,32.4
2023-01-29T12:53:09.612Z,32.4
2023-01-29T12:54:06.826Z,32.4
2023-01-29T12:55:06.551Z,32.4
2023-01-29T12:56:09.777Z,32.4
2023-01-29T12:57:07.061Z,32.4
2023-01-29T12:58:03.547Z,32.5
2023-01-29T12:59:11.906Z,32.4
2023-01-29T13:00:06.179Z,32.4
2023-01-29T13:01:11.663Z,32.2
2023-01-29T13:02:12.910Z,32.4
2023-01-29T13:03:13.003Z,32.4
2023-01-29T13:04:06.574Z,32.5
2023-01-29T13:05:15.023Z,32.7
2023-01-29T13:06:07.446Z,33.1
2023-01-29T13:07:12.245Z,33.3
2023-01-29T13:08:07.843Z,33.4
2023-01-29T13:09:05.536Z,33.4
2023-01-29T13:10:10.838Z,33.4
2023-01-29T13:11:10.115Z,33.4
2023-01-29T13:12:06.135Z,33.4
2023-01-29T13:13:05.654Z,33.4
2023-01-29T13:14:07.643Z,33.4
2023-01-29T13:15:14.830Z,33.4
2023-01-29T13:16:05.889Z,33.4
2023-01-29T13:17:10.443Z,33.6
2023-01-29T13:18:20.768Z,33.6
2023-01-29T13:19:05.697Z,33.8